createdAt,value
2023-05-01T00:01:20.737Z,0.30
2023-05-01T00:04:48.691Z,0.20
2023-05-01T00:08:05.366Z,1.40
2023-05-01T00:11:26.266Z,0.20
2023-05-01T00:14:49.584Z,0.50
2023-05-01T00:18:12.990Z,0.20
2023-05-01T00:21:21.787Z,0.50
2023-05-01T00:24:48.123Z,0.20
2023-05-01T00:27:57.989Z,0.90
2023-05-01T00:31:25.927Z,0.30
2023-05-01T00:34:34.728Z,0.30
2023-05-01T00:37:44.403Z,0.70
2023-05-01T00:41:12.325Z,0.40
2023-05-01T00:44:21.338Z,0.20
2023-05-01T00:47:27.059Z,0.40
2023-05-01T00:50:54.890Z,0.90
2023-05-01T00:54:06.668Z,0.20
2023-05-01T00:57:34.586Z,0.30
2023-05-01T01:00:24.980Z,1.00
2023-05-01T01:03:34.152Z,0.40
2023-05-01T01:07:02.152Z,0.70
2023-05-01T01:10:11.159Z,0.80
2023-05-01T01:13:38.964Z,0.20
2023-05-01T01:17:06.786Z,0.80
2023-05-01T01:20:15.875Z,0.20
2023-05-01T01:23:43.968Z,0.50
2023-05-01T01:27:04.551Z,0.80
2023-05-01T01:30:13.329Z,1.00
2023-05-01T01:33:38.384Z,0.30
2023-05-01T01:36:57.472Z,0.60
2023-05-01T01:40:25.334Z,0.30
2023-05-01T01:43:53.004Z,0.60
2023-05-01T01:47:16.217Z,0.70
2023-05-01T01:50:43.955Z,0.40
2023-05-01T01:53:29.862Z,0.30
2023-05-01T01:56:57.535Z,0.60
2023-05-01T02:00:25.431Z,0.50
2023-05-01T02:03:53.327Z,0.30
2023-05-01T02:06:44.456Z,0.30
2023-05-01T02:09:54.036Z,0.60
2023-05-01T02:13:21.891Z,0.40
2023-05-01T02:16:50.593Z,0.50
2023-05-01T02:20:18.429Z,0.30
2023-05-01T02:23:28.167Z,0.70
2023-05-01T02:26:51.892Z,1.10
2023-05-01T02:30:19.726Z,0.90
2023-05-01T02:33:31.875Z,0.90
2023-05-01T02:36:47.562Z,0.70
2023-05-01T02:40:11.215Z,0.50
2023-05-01T02:43:20.894Z,0.30
2023-05-01T02:46:29.790Z,1.00
2023-05-01T02:49:57.732Z,0.30
2023-05-01T02:53:09.239Z,0.30
2023-05-01T02:56:37.341Z,0.70
2023-05-01T03:00:05.147Z,1.50
2023-05-01T03:03:13.975Z,0.70
2023-05-01T03:06:18.238Z,0.80
2023-05-01T03:09:22.191Z,0.60
2023-05-01T03:12:14.846Z,0.30
2023-05-01T03:15:22.543Z,0.20
2023-05-01T03:18:34.079Z,0.50
2023-05-01T03:21:58.019Z,0.50
2023-05-01T03:25:06.778Z,0.60
2023-05-01T03:28:34.475Z,0.30
2023-05-01T03:31:42.815Z,1.50
2023-05-01T03:34:47.661Z,0.80
2023-05-01T03:38:15.435Z,0.30
2023-05-01T03:41:52.325Z,0.60
2023-05-01T03:45:20.573Z,0.40
2023-05-01T03:48:29.703Z,0.80
2023-05-01T03:51:57.541Z,0.70
2023-05-01T03:55:25.246Z,0.70
2023-05-01T03:58:14.867Z,6.10
2023-05-01T04:01:24.044Z,2.30
2023-05-01T04:04:32.899Z,1.30
2023-05-01T04:07:29.709Z,2.70
2023-05-01T04:10:45.411Z,0.50
2023-05-01T04:14:13.744Z,0.70
2023-05-01T04:17:41.389Z,1.50
2023-05-01T04:21:06.229Z,0.50
2023-05-01T04:24:16.373Z,0.80
2023-05-01T04:27:44.131Z,0.50
2023-05-01T04:31:12.223Z,0.90
2023-05-01T04:34:39.908Z,0.20
2023-05-01T04:38:07.612Z,0.20
2023-05-01T04:41:35.465Z,0.30
2023-05-01T04:45:03.222Z,0.60
2023-05-01T04:48:30.850Z,0.50
2023-05-01T04:51:58.589Z,6.00
2023-05-01T04:55:26.650Z,8.30
2023-05-01T04:58:42.669Z,7.00
2023-05-01T05:02:10.594Z,7.50
2023-05-01T05:05:38.569Z,3.90
2023-05-01T05:09:06.392Z,1.30
2023-05-01T05:12:34.210Z,1.30
2023-05-01T05:16:02.002Z,0.40
2023-05-01T05:19:29.762Z,0.20
2023-05-01T05:22:57.526Z,0.30
2023-05-01T05:26:25.289Z,0.40
2023-05-01T05:29:53.443Z,0.50
2023-05-01T05:32:58.225Z,0.60
2023-05-01T05:36:06.880Z,0.20
2023-05-01T05:39:34.977Z,0.50
2023-05-01T05:42:44.710Z,0.20
2023-05-01T05:46:08.475Z,0.20
2023-05-01T05:49:36.187Z,0.70
2023-05-01T05:52:51.947Z,0.40
2023-05-01T05:56:02.218Z,0.30
2023-05-01T05:59:26.100Z,0.70
2023-05-01T06:02:34.802Z,0.30
2023-05-01T06:06:02.632Z,0.70
2023-05-01T06:09:30.405Z,1.00
2023-05-01T06:13:08.779Z,0.40
2023-05-01T06:16:26.103Z,0.30
2023-05-01T06:19:36.034Z,0.20
2023-05-01T06:23:03.817Z,0.20
2023-05-01T06:29:02.856Z,0.40
2023-05-01T06:32:19.034Z,0.70
2023-05-01T06:35:46.937Z,0.70
2023-05-01T06:38:57.394Z,0.10
2023-05-01T06:41:34.718Z,0.20
2023-05-01T06:44:24.525Z,0.40
2023-05-01T06:47:52.595Z,0.60
2023-05-01T06:51:20.210Z,0.20
2023-05-01T06:54:48.193Z,0.30
2023-05-01T06:57:55.948Z,1.00
2023-05-01T07:00:52.362Z,0.10
2023-05-01T07:04:20.004Z,0.30
2023-05-01T07:07:57.808Z,0.10
2023-05-01T07:11:15.850Z,0.20
2023-05-01T07:14:24.624Z,0.40
2023-05-01T07:17:48.473Z,0.10
2023-05-01T07:21:04.387Z,0.20
2023-05-01T07:24:29.298Z,0.30
2023-05-01T07:27:56.974Z,0.60
2023-05-01T07:31:25.491Z,0.30
2023-05-01T07:34:53.280Z,0.30
2023-05-01T07:38:19.067Z,0.30
2023-05-01T07:41:27.624Z,0.20
2023-05-01T07:44:55.320Z,0.20
2023-05-01T07:48:03.790Z,0.60
2023-05-01T07:51:27.110Z,0.30
2023-05-01T07:54:38.726Z,0.30
2023-05-01T07:57:35.826Z,0.10
2023-05-01T08:01:03.709Z,0.10
2023-05-01T08:03:58.254Z,0.40
2023-05-01T08:07:25.867Z,0.10
2023-05-01T08:10:35.616Z,0.30
2023-05-01T08:13:58.824Z,0.60
2023-05-01T08:17:07.276Z,0.50
2023-05-01T08:20:32.578Z,1.10
2023-05-01T08:23:29.608Z,0.60
2023-05-01T08:26:47.542Z,0.20
2023-05-01T08:30:12.524Z,0.70
2023-05-01T08:33:24.166Z,0.30
2023-05-01T08:36:43.476Z,0.20
2023-05-01T08:39:59.433Z,0.60
2023-05-01T08:43:27.017Z,0.60
2023-05-01T08:46:54.876Z,0.40
2023-05-01T08:49:45.093Z,0.30
2023-05-01T08:53:08.765Z,0.70
2023-05-01T08:56:36.587Z,0.90
2023-05-01T09:00:04.254Z,1.00
2023-05-01T09:03:27.406Z,1.50
2023-05-01T09:06:55.112Z,1.40
2023-05-01T09:10:22.818Z,0.60
2023-05-01T09:13:31.075Z,0.30
2023-05-01T09:16:59.018Z,0.20
2023-05-01T09:19:55.990Z,0.10
2023-05-01T09:23:23.538Z,0.30
2023-05-01T09:26:46.904Z,0.70
2023-05-01T09:29:59.551Z,0.10
2023-05-01T09:32:49.553Z,0.10
2023-05-01T09:36:09.153Z,0.70
2023-05-01T09:39:37.217Z,0.30
2023-05-01T09:42:46.157Z,0.30
2023-05-01T09:45:49.794Z,0.50
2023-05-01T09:49:01.592Z,0.30
2023-05-01T09:52:29.323Z,0.00
2023-05-01T09:55:40.873Z,0.10
2023-05-01T09:58:50.599Z,0.70
2023-05-01T10:02:02.549Z,0.20
2023-05-01T10:05:31.521Z,0.20
2023-05-01T10:08:59.515Z,0.10
2023-05-01T10:11:47.886Z,0.10
2023-05-01T10:14:53.516Z,0.00
2023-05-01T10:18:01.447Z,0.80
2023-05-01T10:21:25.286Z,0.10
2023-05-01T10:24:22.810Z,0.60
2023-05-01T10:27:26.425Z,0.10
2023-05-01T10:30:30.920Z,0.10
2023-05-01T10:33:58.908Z,0.20
2023-05-01T10:37:24.799Z,0.20
2023-05-01T10:40:16.574Z,0.50
2023-05-01T10:43:44.428Z,0.90
2023-05-01T10:46:33.205Z,0.80
2023-05-01T10:50:00.860Z,0.30
2023-05-01T10:53:28.644Z,0.30
2023-05-01T10:56:56.550Z,0.30
2023-05-01T11:00:08.068Z,0.70
2023-05-01T11:02:56.990Z,0.10
2023-05-01T11:06:05.949Z,0.20
2023-05-01T11:09:30.898Z,0.40
2023-05-01T11:12:58.523Z,0.30
2023-05-01T11:16:07.582Z,0.50
2023-05-01T11:19:35.429Z,0.10
2023-05-01T11:22:27.234Z,0.20
2023-05-01T11:25:43.261Z,0.10
2023-05-01T11:28:51.182Z,0.20
2023-05-01T11:31:59.345Z,0.20
2023-05-01T11:35:16.445Z,0.10
2023-05-01T11:38:44.446Z,1.20
2023-05-01T11:41:55.715Z,0.40
2023-05-01T11:45:07.951Z,0.50
2023-05-01T11:48:11.842Z,0.10
2023-05-01T11:51:39.579Z,0.40
2023-05-01T11:54:29.880Z,0.60
2023-05-01T11:57:38.227Z,0.10
2023-05-01T12:00:47.408Z,0.80
2023-05-01T12:03:57.657Z,0.30
2023-05-01T12:07:05.705Z,0.10
2023-05-01T12:10:17.385Z,0.30
2023-05-01T12:13:45.161Z,0.20
2023-05-01T12:16:35.116Z,0.30
2023-05-01T12:19:44.219Z,0.90
2023-05-01T12:23:11.930Z,0.80
2023-05-01T12:26:39.502Z,0.80
2023-05-01T12:29:47.669Z,0.10
2023-05-01T12:33:15.351Z,0.50
2023-05-01T12:36:03.757Z,0.60
2023-05-01T12:39:31.515Z,0.30
2023-05-01T12:42:55.719Z,0.20
2023-05-01T12:46:23.553Z,0.40
2023-05-01T12:49:33.375Z,0.10
2023-05-01T12:52:03.770Z,0.30
2023-05-01T12:55:31.409Z,0.00
2023-05-01T12:58:59.197Z,0.30
2023-05-01T13:02:28.182Z,0.30
2023-05-01T13:05:36.071Z,0.10
2023-05-01T13:08:25.590Z,0.30
2023-05-01T13:11:34.250Z,0.30
2023-05-01T13:14:08.136Z,0.30
2023-05-01T13:17:19.521Z,0.30
2023-05-01T13:20:27.720Z,0.20
2023-05-01T13:23:15.566Z,0.20
2023-05-01T13:26:31.606Z,0.10
2023-05-01T13:28:59.659Z,0.10
2023-05-01T13:31:52.340Z,0.40
2023-05-01T13:34:22.151Z,0.30
2023-05-01T13:37:09.495Z,0.20
2023-05-01T13:39:49.313Z,0.20
2023-05-01T13:42:21.216Z,0.10
2023-05-01T13:45:12.331Z,0.10
2023-05-01T13:47:52.439Z,0.00
2023-05-01T13:51:07.839Z,0.40
2023-05-01T13:54:16.021Z,0.10
2023-05-01T13:57:23.793Z,0.10
2023-05-01T14:00:14.125Z,0.30
2023-05-01T14:03:03.245Z,0.20
2023-05-01T14:06:01.509Z,0.10
2023-05-01T14:08:50.636Z,0.20
2023-05-01T14:12:05.809Z,0.20
2023-05-01T14:15:17.343Z,0.20
2023-05-01T14:18:07.468Z,0.20
2023-05-01T14:20:35.749Z,0.00
2023-05-01T14:23:04.186Z,0.30
2023-05-01T14:25:57.132Z,0.30
2023-05-01T14:28:46.244Z,0.10
2023-05-01T14:31:15.313Z,0.00
2023-05-01T14:33:44.064Z,0.00
2023-05-01T14:36:51.976Z,0.40
2023-05-01T14:39:25.147Z,0.20
2023-05-01T14:41:55.344Z,0.30
2023-05-01T14:44:46.122Z,0.70
2023-05-01T14:49:49.943Z,0.20
2023-05-01T14:52:18.430Z,0.10
2023-05-01T14:54:47.032Z,0.10
2023-05-01T14:57:15.596Z,0.40
2023-05-01T15:00:24.391Z,0.40
2023-05-01T15:03:12.635Z,0.30
2023-05-01T15:05:42.245Z,0.50
2023-05-01T15:08:21.356Z,0.20
2023-05-01T15:11:49.358Z,0.10
2023-05-01T15:14:46.324Z,0.20
2023-05-01T15:18:15.879Z,0.10
2023-05-01T15:21:07.386Z,0.10
2023-05-01T15:24:18.634Z,0.10
2023-05-01T15:27:10.272Z,0.20
2023-05-01T15:30:06.852Z,0.60
2023-05-01T15:32:40.474Z,0.00
2023-05-01T15:35:10.081Z,0.20
2023-05-01T15:38:00.571Z,0.40
2023-05-01T15:40:50.571Z,0.20
2023-05-01T15:43:43.101Z,0.50
2023-05-01T15:47:11.290Z,0.30
2023-05-01T15:49:44.973Z,1.20
2023-05-01T15:52:40.163Z,0.10
2023-05-01T15:56:08.009Z,0.50
2023-05-01T15:58:45.459Z,0.70
2023-05-01T16:01:22.882Z,0.20
2023-05-01T16:04:16.039Z,0.10
2023-05-01T16:07:44.089Z,0.20
2023-05-01T16:11:12.610Z,0.30
2023-05-01T16:14:22.578Z,0.30
2023-05-01T16:17:14.527Z,0.20
2023-05-01T16:20:18.750Z,0.40
2023-05-01T16:22:49.541Z,0.00
2023-05-01T16:25:29.441Z,0.40
2023-05-01T16:28:36.628Z,0.20
2023-05-01T16:31:27.769Z,0.10
2023-05-01T16:34:17.243Z,0.10
2023-05-01T16:36:46.489Z,0.10
2023-05-01T16:39:31.877Z,0.40
2023-05-01T16:42:03.806Z,0.40
2023-05-01T16:44:51.856Z,0.50
2023-05-01T16:47:40.028Z,0.00
2023-05-01T16:50:08.777Z,0.20
2023-05-01T16:52:40.991Z,0.60
2023-05-01T16:55:09.370Z,0.40
2023-05-01T16:57:42.332Z,0.70
2023-05-01T17:00:50.290Z,1.00
2023-05-01T17:03:59.215Z,0.20
2023-05-01T17:07:26.944Z,0.30
2023-05-01T17:10:55.846Z,0.40
2023-05-01T17:14:23.859Z,0.40
2023-05-01T17:17:51.655Z,0.70
2023-05-01T17:21:07.359Z,0.40
2023-05-01T17:24:35.380Z,0.30
2023-05-01T17:28:03.431Z,0.10
2023-05-01T17:30:51.967Z,0.60
2023-05-01T17:33:22.941Z,0.80
2023-05-01T17:36:50.822Z,1.20
2023-05-01T17:39:59.760Z,0.20
2023-05-01T17:43:27.805Z,0.30
2023-05-01T17:46:37.794Z,0.80
2023-05-01T17:50:05.566Z,0.10
2023-05-01T17:52:54.753Z,0.00
2023-05-01T17:55:45.766Z,0.20
2023-05-01T17:58:36.987Z,0.30
2023-05-01T18:01:28.076Z,0.70
2023-05-01T18:04:55.984Z,0.20
2023-05-01T18:08:23.943Z,0.20
2023-05-01T18:11:31.800Z,0.10
2023-05-01T18:14:59.672Z,0.10
2023-05-01T18:18:27.873Z,0.30
2023-05-01T18:21:16.931Z,0.20
2023-05-01T18:24:24.940Z,1.00
2023-05-01T18:27:53.137Z,0.20
2023-05-01T18:31:16.546Z,0.20
2023-05-01T18:34:06.672Z,0.10
2023-05-01T18:36:56.369Z,0.70
2023-05-01T18:40:24.042Z,0.10
2023-05-01T18:43:34.296Z,0.30
2023-05-01T18:47:02.200Z,0.20
2023-05-01T18:50:12.151Z,0.20
2023-05-01T18:53:09.809Z,0.40
2023-05-01T18:55:43.398Z,0.50
2023-05-01T18:59:11.389Z,0.80
2023-05-01T19:01:39.867Z,0.60
2023-05-01T19:04:30.754Z,0.20
2023-05-01T19:07:58.562Z,0.40
2023-05-01T19:11:07.513Z,0.20
2023-05-01T19:14:35.628Z,0.60
2023-05-01T19:18:03.709Z,0.60
2023-05-01T19:20:53.203Z,0.30
2023-05-01T19:24:21.163Z,0.30
2023-05-01T19:27:49.029Z,0.50
2023-05-01T19:31:17.038Z,0.10
2023-05-01T19:34:25.986Z,0.60
2023-05-01T19:37:54.020Z,0.40
2023-05-01T19:41:22.056Z,0.50
2023-05-01T19:44:38.344Z,1.30
2023-05-01T19:47:47.462Z,0.50
2023-05-01T19:50:37.622Z,0.40
2023-05-01T19:54:05.481Z,0.10
2023-05-01T19:56:54.898Z,0.20
2023-05-01T19:59:24.725Z,1.10
2023-05-01T20:02:13.205Z,0.70
2023-05-01T20:05:40.940Z,0.20
2023-05-01T20:09:09.034Z,0.20
2023-05-01T20:12:06.151Z,0.60
2023-05-01T20:14:57.066Z,1.20
2023-05-01T20:17:29.805Z,0.30
2023-05-01T20:19:59.390Z,0.20
2023-05-01T20:22:51.826Z,1.90
2023-05-01T20:25:40.763Z,0.20
2023-05-01T20:28:36.639Z,1.30
2023-05-01T20:31:45.979Z,1.00
2023-05-01T20:34:55.279Z,0.20
2023-05-01T20:38:28.993Z,0.10
2023-05-01T20:41:57.004Z,0.50
2023-05-01T20:45:20.491Z,1.60
2023-05-01T20:48:01.728Z,0.80
2023-05-01T20:50:45.754Z,0.30
2023-05-01T20:54:13.678Z,0.60
2023-05-01T20:57:42.142Z,0.60
2023-05-01T21:00:31.102Z,0.10
2023-05-01T21:03:59.324Z,0.10
2023-05-01T21:06:48.521Z,0.40
2023-05-01T21:10:16.317Z,0.20
2023-05-01T21:13:44.134Z,0.10
2023-05-01T21:17:11.955Z,0.50
2023-05-01T21:20:39.758Z,0.30
2023-05-01T21:23:56.897Z,0.20
2023-05-01T21:27:14.091Z,0.10
2023-05-01T21:30:22.305Z,0.30
2023-05-01T21:33:50.290Z,0.10
2023-05-01T21:37:19.764Z,0.30
2023-05-01T21:40:47.582Z,0.90
2023-05-01T21:44:15.560Z,0.20
2023-05-01T21:47:43.950Z,0.30
2023-05-01T21:51:12.772Z,0.10
2023-05-01T21:53:50.534Z,0.10
2023-05-01T21:56:41.940Z,0.30
2023-05-01T21:59:49.599Z,0.20
2023-05-01T22:03:23.330Z,0.20
2023-05-01T22:06:32.194Z,0.20
2023-05-01T22:10:02.148Z,0.10
2023-05-01T22:13:32.113Z,0.50
2023-05-01T22:17:00.157Z,0.20
2023-05-01T22:20:28.017Z,0.50
2023-05-01T22:23:56.285Z,1.00
2023-05-01T22:27:24.362Z,0.40
2023-05-01T22:30:48.074Z,0.10
2023-05-01T22:34:16.950Z,0.10
2023-05-01T22:37:44.807Z,0.10
2023-05-01T22:41:14.870Z,0.70
2023-05-01T22:44:44.885Z,0.30
2023-05-01T22:48:13.193Z,0.20
2023-05-01T22:51:42.723Z,0.30
2023-05-01T22:55:17.420Z,0.40
2023-05-01T22:58:47.673Z,0.60
2023-05-01T23:02:17.169Z,0.10
2023-05-01T23:05:45.329Z,0.70
2023-05-01T23:09:13.047Z,0.50
2023-05-01T23:12:41.112Z,0.10
2023-05-01T23:16:10.277Z,0.50
2023-05-01T23:19:38.276Z,0.20
2023-05-01T23:23:06.314Z,0.50
2023-05-01T23:26:02.861Z,0.60
2023-05-01T23:29:12.008Z,0.30
2023-05-01T23:32:40.072Z,0.10
2023-05-01T23:35:49.261Z,0.60
2023-05-01T23:39:17.325Z,0.20
2023-05-01T23:42:45.232Z,0.10
2023-05-01T23:46:13.255Z,0.80
2023-05-01T23:49:41.657Z,0.10
2023-05-01T23:53:09.726Z,0.10
2023-05-01T23:56:37.915Z,0.40
